Prior Lake, MN

12:37 AM CDT on April 01, 2015 (GMT -0500)
East Spring Lake Twp | | Change Station
CLOSE
Current Station
Personal Weather Station
Location: Prior Lake, MN
Elevation: 1008 ft
Nearby Weather Stations

Elev 1008 ft 44.66 °N, 93.43 °W | Updated 46 seconds ago

Clear
Clear
47.1 °F
Feels Like 47 °F
N
0.0
Wind Variable Wind from East
Gusts 12.0 mph

Today
High -- | Low -- °F
--% Chance of Precip.
Yesterday
High -- | Low -- °F
Precip. -- in
6:55 AM 7:40 PM
Waxing Gibbous, 91% visible
Pressure 29.86 in
Visibility 10.0 miles
Clouds Clear
Windchill 47 °F
Dew Point 34 °F
Humidity 59%
Rainfall 0.00 in
Snow Depth Not available.
UV 0 out of 12
Pollen 6.60 out of 12
Air Quality Not available.
Flu Activity Not available.
METAR KLVN 010533Z AUTO 16003KT 10SM CLR 07/01 A2986 RMK AO2

More Conditions Fewer Conditions

Pressure 29.86 in
Visibility 10.0 miles
Clouds Clear
Windchill 47 °F
Dew Point 34 °F
Humidity 59%
Rainfall 0.00 in
Snow Depth Not available.
UV 0 out of 12
Pollen 6.60 out of 12
Air Quality Not available.
Flu Activity Not available.
METAR KLVN 010533Z AUTO 16003KT 10SM CLR 07/01 A2986 RMK AO2

More Conditions Fewer Conditions

10-Day Weather Forecast

Almanac

Astronomy

Apr. 01, 2015 Rise Set
Actual Time
Civil Twilight
Nautical Twilight
Astronomical Twilight
Moon
Length of Visible Light
Length of Day
Tomorrow will be .
, % of the Moon is Illuminated

Today's Extremes

State Highs State Lows

Community

WunderPhotos

Upload Photos

1,809,919 photos uploaded!

WunderBlogs® & News

Nearby

Air Quality

  Air Quality AQ Index Pollutant
Not available.

Snow Depth

Station Depth Elevation

Earthquake Activity

City Distance Mag. Time & Date
Minimum magnitude displayed is 2.5.

Coastal Water Temperatures

Place Temperature

Stations

Nearby Weather Stations

Station Location Temp. Windchill Dew Point Humidity Wind Precip. Elev Updated Type